sensor_id;sensor_type;location;lat;lon;timestamp;temperature;humidity
37410;DHT22;23275;48.914;12.566;2024-01-11T00:01:20;-5.00;99.90
37410;DHT22;23275;48.914;12.566;2024-01-11T00:03:45;-5.00;99.90
37410;DHT22;23275;48.914;12.566;2024-01-11T00:06:11;-5.00;99.90
37410;DHT22;23275;48.914;12.566;2024-01-11T00:08:36;-5.00;99.90
37410;DHT22;23275;48.914;12.566;2024-01-11T00:11:02;-5.00;99.90
37410;DHT22;23275;48.914;12.566;2024-01-11T00:13:29;-5.00;99.90
37410;DHT22;23275;48.914;12.566;2024-01-11T00:15:54;-5.00;99.90
37410;DHT22;23275;48.914;12.566;2024-01-11T00:18:20;-5.10;99.90
37410;DHT22;23275;48.914;12.566;2024-01-11T00:20:45;-5.10;99.90
37410;DHT22;23275;48.914;12.566;2024-01-11T00:23:11;-5.10;99.90
37410;DHT22;23275;48.914;12.566;2024-01-11T00:25:37;-5.20;99.90
37410;DHT22;23275;48.914;12.566;2024-01-11T00:28:02;-5.20;99.90
37410;DHT22;23275;48.914;12.566;2024-01-11T00:30:28;-5.20;99.90
37410;DHT22;23275;48.914;12.566;2024-01-11T00:32:53;-5.20;99.90
37410;DHT22;23275;48.914;12.566;2024-01-11T00:35:19;-5.30;99.90
37410;DHT22;23275;48.914;12.566;2024-01-11T00:37:45;-5.20;99.90
37410;DHT22;23275;48.914;12.566;2024-01-11T00:40:10;-5.20;99.90
37410;DHT22;23275;48.914;12.566;2024-01-11T00:42:36;-5.20;99.90
37410;DHT22;23275;48.914;12.566;2024-01-11T00:45:02;-5.20;99.90
37410;DHT22;23275;48.914;12.566;2024-01-11T00:47:27;-5.20;99.90
37410;DHT22;23275;48.914;12.566;2024-01-11T00:49:53;-5.20;99.90
37410;DHT22;23275;48.914;12.566;2024-01-11T00:52:19;-5.20;99.90
37410;DHT22;23275;48.914;12.566;2024-01-11T00:54:44;-5.20;99.90
37410;DHT22;23275;48.914;12.566;2024-01-11T00:57:10;-5.20;99.90
37410;DHT22;23275;48.914;12.566;2024-01-11T00:59:35;-5.20;99.90
37410;DHT22;23275;48.914;12.566;2024-01-11T01:02:01;-5.30;99.90
37410;DHT22;23275;48.914;12.566;2024-01-11T01:04:27;-5.30;99.90
37410;DHT22;23275;48.914;12.566;2024-01-11T01:06:52;-5.40;99.90
37410;DHT22;23275;48.914;12.566;2024-01-11T01:09:18;-5.40;99.90
37410;DHT22;23275;48.914;12.566;2024-01-11T01:11:43;-5.40;99.90
37410;DHT22;23275;48.914;12.566;2024-01-11T01:14:09;-5.40;99.90
37410;DHT22;23275;48.914;12.566;2024-01-11T01:16:34;-5.40;99.90
37410;DHT22;23275;48.914;12.566;2024-01-11T01:19:00;-5.40;99.90
37410;DHT22;23275;48.914;12.566;2024-01-11T01:21:25;-5.50;99.90
37410;DHT22;23275;48.914;12.566;2024-01-11T01:23:51;-5.40;99.90
37410;DHT22;23275;48.914;12.566;2024-01-11T01:26:16;-5.50;99.90
37410;DHT22;23275;48.914;12.566;2024-01-11T01:28:42;-5.50;99.90
37410;DHT22;23275;48.914;12.566;2024-01-11T01:31:08;-5.50;99.90
37410;DHT22;23275;48.914;12.566;2024-01-11T01:33:33;-5.60;99.90
37410;DHT22;23275;48.914;12.566;2024-01-11T01:35:59;-5.60;99.90
37410;DHT22;23275;48.914;12.566;2024-01-11T01:38:24;-5.60;99.90
37410;DHT22;23275;48.914;12.566;2024-01-11T01:40:50;-5.60;99.90
37410;DHT22;23275;48.914;12.566;2024-01-11T01:43:16;-5.60;99.90
37410;DHT22;23275;48.914;12.566;2024-01-11T01:45:41;-5.60;99.90
37410;DHT22;23275;48.914;12.566;2024-01-11T01:48:07;-5.60;99.90
37410;DHT22;23275;48.914;12.566;2024-01-11T01:50:33;-5.60;99.90
37410;DHT22;23275;48.914;12.566;2024-01-11T01:52:59;-5.50;99.90
37410;DHT22;23275;48.914;12.566;2024-01-11T01:55:26;-5.50;99.90
37410;DHT22;23275;48.914;12.566;2024-01-11T01:57:52;-5.50;99.90
37410;DHT22;23275;48.914;12.566;2024-01-11T02:00:18;-5.50;99.90
37410;DHT22;23275;48.914;12.566;2024-01-11T02:02:44;-5.50;99.90
37410;DHT22;23275;48.914;12.566;2024-01-11T02:05:12;-5.50;99.90
37410;DHT22;23275;48.914;12.566;2024-01-11T02:07:39;-5.50;99.90
37410;DHT22;23275;48.914;12.566;2024-01-11T02:10:05;-5.50;99.90
37410;DHT22;23275;48.914;12.566;2024-01-11T02:12:32;-5.50;99.90
37410;DHT22;23275;48.914;12.566;2024-01-11T02:14:59;-5.50;99.90
37410;DHT22;23275;48.914;12.566;2024-01-11T02:17:25;-5.50;99.90
37410;DHT22;23275;48.914;12.566;2024-01-11T02:19:50;-5.50;99.90
37410;DHT22;23275;48.914;12.566;2024-01-11T02:22:22;-5.50;99.90
37410;DHT22;23275;48.914;12.566;2024-01-11T02:24:49;-5.50;99.90
37410;DHT22;23275;48.914;12.566;2024-01-11T02:27:15;-5.60;99.90
37410;DHT22;23275;48.914;12.566;2024-01-11T02:29:41;-5.70;99.90
37410;DHT22;23275;48.914;12.566;2024-01-11T02:32:06;-5.70;99.90
37410;DHT22;23275;48.914;12.566;2024-01-11T02:34:33;-5.70;99.90
37410;DHT22;23275;48.914;12.566;2024-01-11T02:36:59;-5.70;99.90
37410;DHT22;23275;48.914;12.566;2024-01-11T02:39:25;-5.70;99.90
37410;DHT22;23275;48.914;12.566;2024-01-11T02:41:53;-5.70;99.90
37410;DHT22;23275;48.914;12.566;2024-01-11T02:44:18;-5.70;99.90
37410;DHT22;23275;48.914;12.566;2024-01-11T02:46:44;-5.80;99.90
37410;DHT22;23275;48.914;12.566;2024-01-11T02:49:10;-5.80;99.90
37410;DHT22;23275;48.914;12.566;2024-01-11T02:51:35;-5.80;99.90
37410;DHT22;23275;48.914;12.566;2024-01-11T02:54:02;-5.80;99.90
37410;DHT22;23275;48.914;12.566;2024-01-11T02:56:27;-5.80;99.90
37410;DHT22;23275;48.914;12.566;2024-01-11T02:58:53;-5.80;99.90
37410;DHT22;23275;48.914;12.566;2024-01-11T03:01:18;-5.80;99.90
37410;DHT22;23275;48.914;12.566;2024-01-11T03:03:44;-5.90;99.90
37410;DHT22;23275;48.914;12.566;2024-01-11T03:06:10;-5.90;99.90
37410;DHT22;23275;48.914;12.566;2024-01-11T03:08:35;-5.90;99.90
37410;DHT22;23275;48.914;12.566;2024-01-11T03:11:01;-5.90;99.90
37410;DHT22;23275;48.914;12.566;2024-01-11T03:13:27;-6.00;99.90
37410;DHT22;23275;48.914;12.566;2024-01-11T03:15:53;-6.00;99.90
37410;DHT22;23275;48.914;12.566;2024-01-11T03:18:18;-6.00;99.90
37410;DHT22;23275;48.914;12.566;2024-01-11T03:20:44;-6.00;99.90
37410;DHT22;23275;48.914;12.566;2024-01-11T03:23:09;-6.00;99.90
37410;DHT22;23275;48.914;12.566;2024-01-11T03:25:35;-6.00;99.90
37410;DHT22;23275;48.914;12.566;2024-01-11T03:28:00;-6.00;99.90
37410;DHT22;23275;48.914;12.566;2024-01-11T03:30:26;-6.10;99.90
37410;DHT22;23275;48.914;12.566;2024-01-11T03:32:52;-6.00;99.90
37410;DHT22;23275;48.914;12.566;2024-01-11T03:35:18;-6.10;99.90
37410;DHT22;23275;48.914;12.566;2024-01-11T03:37:44;-6.10;99.90
37410;DHT22;23275;48.914;12.566;2024-01-11T03:40:10;-6.20;99.90
37410;DHT22;23275;48.914;12.566;2024-01-11T03:42:36;-6.10;99.90
37410;DHT22;23275;48.914;12.566;2024-01-11T03:45:02;-6.20;99.90
37410;DHT22;23275;48.914;12.566;2024-01-11T03:47:28;-6.20;99.90
37410;DHT22;23275;48.914;12.566;2024-01-11T03:49:53;-6.20;99.90
37410;DHT22;23275;48.914;12.566;2024-01-11T03:52:19;-6.20;99.90
37410;DHT22;23275;48.914;12.566;2024-01-11T03:54:45;-6.30;99.90
37410;DHT22;23275;48.914;12.566;2024-01-11T03:57:10;-6.20;99.90
37410;DHT22;23275;48.914;12.566;2024-01-11T03:59:36;-6.20;99.90
37410;DHT22;23275;48.914;12.566;2024-01-11T04:02:02;-6.20;99.90
37410;DHT22;23275;48.914;12.566;2024-01-11T04:04:27;-6.20;99.90
37410;DHT22;23275;48.914;12.566;2024-01-11T04:06:53;-6.30;99.90
37410;DHT22;23275;48.914;12.566;2024-01-11T04:09:18;-6.30;99.90
37410;DHT22;23275;48.914;12.566;2024-01-11T04:11:46;-6.30;99.90
37410;DHT22;23275;48.914;12.566;2024-01-11T04:14:11;-6.30;99.90
37410;DHT22;23275;48.914;12.566;2024-01-11T04:16:41;-6.30;99.90
37410;DHT22;23275;48.914;12.566;2024-01-11T04:19:07;-6.20;99.90
37410;DHT22;23275;48.914;12.566;2024-01-11T04:21:32;-6.30;99.90
37410;DHT22;23275;48.914;12.566;2024-01-11T04:23:58;-6.40;99.90
37410;DHT22;23275;48.914;12.566;2024-01-11T04:26:24;-6.40;99.90
37410;DHT22;23275;48.914;12.566;2024-01-11T04:28:51;-6.40;99.90
37410;DHT22;23275;48.914;12.566;2024-01-11T04:31:17;-6.40;99.90
37410;DHT22;23275;48.914;12.566;2024-01-11T04:33:43;-6.40;99.90
37410;DHT22;23275;48.914;12.566;2024-01-11T04:36:09;-6.40;99.90
37410;DHT22;23275;48.914;12.566;2024-01-11T04:38:35;-6.40;99.90
37410;DHT22;23275;48.914;12.566;2024-01-11T04:41:07;-6.40;99.90
37410;DHT22;23275;48.914;12.566;2024-01-11T04:43:32;-6.40;99.90
37410;DHT22;23275;48.914;12.566;2024-01-11T04:45:58;-6.40;99.90
37410;DHT22;23275;48.914;12.566;2024-01-11T04:48:23;-6.40;99.90
37410;DHT22;23275;48.914;12.566;2024-01-11T04:50:49;-6.30;99.90
37410;DHT22;23275;48.914;12.566;2024-01-11T04:53:14;-6.30;99.90
37410;DHT22;23275;48.914;12.566;2024-01-11T04:55:40;-6.40;99.90
37410;DHT22;23275;48.914;12.566;2024-01-11T04:58:05;-6.50;99.90
37410;DHT22;23275;48.914;12.566;2024-01-11T05:00:31;-6.50;99.90
37410;DHT22;23275;48.914;12.566;2024-01-11T05:02:56;-6.50;99.90
37410;DHT22;23275;48.914;12.566;2024-01-11T05:05:22;-6.50;99.90
37410;DHT22;23275;48.914;12.566;2024-01-11T05:07:47;-6.50;99.90
37410;DHT22;23275;48.914;12.566;2024-01-11T05:10:13;-6.50;99.90
37410;DHT22;23275;48.914;12.566;2024-01-11T05:12:38;-6.50;99.90
37410;DHT22;23275;48.914;12.566;2024-01-11T05:15:05;-6.50;99.90
37410;DHT22;23275;48.914;12.566;2024-01-11T05:17:33;-6.50;99.90
37410;DHT22;23275;48.914;12.566;2024-01-11T05:19:58;-6.50;99.90
37410;DHT22;23275;48.914;12.566;2024-01-11T05:22:24;-6.50;99.90
37410;DHT22;23275;48.914;12.566;2024-01-11T05:24:49;-6.50;99.90
37410;DHT22;23275;48.914;12.566;2024-01-11T05:27:15;-6.60;99.90
37410;DHT22;23275;48.914;12.566;2024-01-11T05:29:41;-6.60;99.90
37410;DHT22;23275;48.914;12.566;2024-01-11T05:32:06;-6.60;99.90
37410;DHT22;23275;48.914;12.566;2024-01-11T05:34:32;-6.60;99.90
37410;DHT22;23275;48.914;12.566;2024-01-11T05:36:57;-6.60;99.90
37410;DHT22;23275;48.914;12.566;2024-01-11T05:39:23;-6.60;99.90
37410;DHT22;23275;48.914;12.566;2024-01-11T05:41:49;-6.60;99.90
37410;DHT22;23275;48.914;12.566;2024-01-11T05:44:14;-6.60;99.90
37410;DHT22;23275;48.914;12.566;2024-01-11T05:46:40;-6.60;99.90
37410;DHT22;23275;48.914;12.566;2024-01-11T05:49:06;-6.60;99.90
37410;DHT22;23275;48.914;12.566;2024-01-11T05:51:31;-6.60;99.90
37410;DHT22;23275;48.914;12.566;2024-01-11T05:53:57;-6.70;99.90
37410;DHT22;23275;48.914;12.566;2024-01-11T05:56:22;-6.80;99.90
37410;DHT22;23275;48.914;12.566;2024-01-11T05:58:48;-6.70;99.90
37410;DHT22;23275;48.914;12.566;2024-01-11T06:01:13;-6.70;99.90
37410;DHT22;23275;48.914;12.566;2024-01-11T06:03:39;-6.80;99.90
37410;DHT22;23275;48.914;12.566;2024-01-11T06:06:05;-6.80;99.90
37410;DHT22;23275;48.914;12.566;2024-01-11T06:08:31;-6.80;99.90
37410;DHT22;23275;48.914;12.566;2024-01-11T06:10:57;-6.80;99.90
37410;DHT22;23275;48.914;12.566;2024-01-11T06:13:23;-6.80;99.90
37410;DHT22;23275;48.914;12.566;2024-01-11T06:15:48;-6.80;99.90
37410;DHT22;23275;48.914;12.566;2024-01-11T06:18:15;-6.80;99.90
37410;DHT22;23275;48.914;12.566;2024-01-11T06:20:41;-6.80;99.90
37410;DHT22;23275;48.914;12.566;2024-01-11T06:23:06;-6.80;99.90
37410;DHT22;23275;48.914;12.566;2024-01-11T06:25:32;-6.80;99.90
37410;DHT22;23275;48.914;12.566;2024-01-11T06:27:58;-6.90;99.90
37410;DHT22;23275;48.914;12.566;2024-01-11T06:30:23;-6.90;99.90
37410;DHT22;23275;48.914;12.566;2024-01-11T06:32:49;-6.90;99.90
37410;DHT22;23275;48.914;12.566;2024-01-11T06:35:14;-7.00;99.90
37410;DHT22;23275;48.914;12.566;2024-01-11T06:37:40;-7.00;99.90
37410;DHT22;23275;48.914;12.566;2024-01-11T06:40:06;-7.00;99.90
37410;DHT22;23275;48.914;12.566;2024-01-11T06:42:33;-7.00;99.90
37410;DHT22;23275;48.914;12.566;2024-01-11T06:44:59;-7.00;99.90
37410;DHT22;23275;48.914;12.566;2024-01-11T06:47:24;-7.00;99.90
37410;DHT22;23275;48.914;12.566;2024-01-11T06:49:50;-7.00;99.90
37410;DHT22;23275;48.914;12.566;2024-01-11T06:52:15;-6.90;99.90
37410;DHT22;23275;48.914;12.566;2024-01-11T06:54:41;-7.00;99.90
37410;DHT22;23275;48.914;12.566;2024-01-11T06:57:07;-7.00;99.90
37410;DHT22;23275;48.914;12.566;2024-01-11T06:59:32;-6.90;99.90
37410;DHT22;23275;48.914;12.566;2024-01-11T07:01:58;-6.90;99.90
37410;DHT22;23275;48.914;12.566;2024-01-11T07:04:23;-6.90;99.90
37410;DHT22;23275;48.914;12.566;2024-01-11T07:06:49;-6.90;99.90
37410;DHT22;23275;48.914;12.566;2024-01-11T07:09:14;-6.90;99.90
37410;DHT22;23275;48.914;12.566;2024-01-11T07:11:42;-6.80;99.90
37410;DHT22;23275;48.914;12.566;2024-01-11T07:14:08;-6.80;99.90
37410;DHT22;23275;48.914;12.566;2024-01-11T07:16:33;-6.70;99.90
37410;DHT22;23275;48.914;12.566;2024-01-11T07:18:59;-6.60;99.90
37410;DHT22;23275;48.914;12.566;2024-01-11T07:21:25;-6.50;99.90
37410;DHT22;23275;48.914;12.566;2024-01-11T07:23:55;-6.40;99.90
37410;DHT22;23275;48.914;12.566;2024-01-11T07:26:22;-6.30;99.90
37410;DHT22;23275;48.914;12.566;2024-01-11T07:28:48;-6.20;99.90
37410;DHT22;23275;48.914;12.566;2024-01-11T07:31:14;-6.00;99.90
37410;DHT22;23275;48.914;12.566;2024-01-11T07:33:39;-5.90;99.90
37410;DHT22;23275;48.914;12.566;2024-01-11T07:36:06;-5.80;99.90
37410;DHT22;23275;48.914;12.566;2024-01-11T07:38:32;-5.70;99.90
37410;DHT22;23275;48.914;12.566;2024-01-11T07:40:57;-5.60;99.90
37410;DHT22;23275;48.914;12.566;2024-01-11T07:43:23;-5.60;99.90
37410;DHT22;23275;48.914;12.566;2024-01-11T07:45:48;-5.40;99.90
37410;DHT22;23275;48.914;12.566;2024-01-11T07:48:15;-5.10;99.90
37410;DHT22;23275;48.914;12.566;2024-01-11T07:50:41;-4.80;99.90
37410;DHT22;23275;48.914;12.566;2024-01-11T07:53:07;-4.10;99.90
37410;DHT22;23275;48.914;12.566;2024-01-11T07:55:32;-3.30;99.90
37410;DHT22;23275;48.914;12.566;2024-01-11T07:57:58;-3.00;99.90
37410;DHT22;23275;48.914;12.566;2024-01-11T08:00:23;-3.10;99.90
37410;DHT22;23275;48.914;12.566;2024-01-11T08:02:49;-2.80;99.90
37410;DHT22;23275;48.914;12.566;2024-01-11T08:05:15;-2.10;99.90
37410;DHT22;23275;48.914;12.566;2024-01-11T08:07:40;-1.70;99.90
37410;DHT22;23275;48.914;12.566;2024-01-11T08:10:08;-1.50;99.90
37410;DHT22;23275;48.914;12.566;2024-01-11T08:12:35;-0.80;99.90
37410;DHT22;23275;48.914;12.566;2024-01-11T08:15:01;-0.10;99.90
37410;DHT22;23275;48.914;12.566;2024-01-11T08:17:26;0.40;99.90
37410;DHT22;23275;48.914;12.566;2024-01-11T08:19:52;1.10;99.90
37410;DHT22;23275;48.914;12.566;2024-01-11T08:22:18;1.70;99.90
37410;DHT22;23275;48.914;12.566;2024-01-11T08:24:47;2.50;99.90
37410;DHT22;23275;48.914;12.566;2024-01-11T08:27:13;3.70;99.90
37410;DHT22;23275;48.914;12.566;2024-01-11T08:29:40;4.70;99.90
37410;DHT22;23275;48.914;12.566;2024-01-11T08:32:06;6.30;99.90
37410;DHT22;23275;48.914;12.566;2024-01-11T08:34:32;7.30;99.90
37410;DHT22;23275;48.914;12.566;2024-01-11T08:36:58;7.80;97.30
37410;DHT22;23275;48.914;12.566;2024-01-11T08:39:24;9.10;94.20
37410;DHT22;23275;48.914;12.566;2024-01-11T08:41:49;10.20;90.70
37410;DHT22;23275;48.914;12.566;2024-01-11T08:44:15;10.50;85.50
37410;DHT22;23275;48.914;12.566;2024-01-11T08:46:40;9.60;85.90
37410;DHT22;23275;48.914;12.566;2024-01-11T08:49:06;9.40;85.30
37410;DHT22;23275;48.914;12.566;2024-01-11T08:51:32;9.10;85.70
37410;DHT22;23275;48.914;12.566;2024-01-11T08:53:58;9.80;82.70
37410;DHT22;23275;48.914;12.566;2024-01-11T08:56:23;9.20;83.60
37410;DHT22;23275;48.914;12.566;2024-01-11T08:58:49;9.00;83.50
37410;DHT22;23275;48.914;12.566;2024-01-11T09:01:15;7.70;85.50
37410;DHT22;23275;48.914;12.566;2024-01-11T09:03:41;7.80;86.10
37410;DHT22;23275;48.914;12.566;2024-01-11T09:06:06;8.50;86.10
37410;DHT22;23275;48.914;12.566;2024-01-11T09:08:32;9.20;83.50
37410;DHT22;23275;48.914;12.566;2024-01-11T09:10:59;10.40;83.10
37410;DHT22;23275;48.914;12.566;2024-01-11T09:13:25;10.60;80.00
37410;DHT22;23275;48.914;12.566;2024-01-11T09:15:54;12.10;75.90
37410;DHT22;23275;48.914;12.566;2024-01-11T09:18:20;11.60;73.00
37410;DHT22;23275;48.914;12.566;2024-01-11T09:20:46;11.90;72.70
37410;DHT22;23275;48.914;12.566;2024-01-11T09:23:11;10.70;74.70
37410;DHT22;23275;48.914;12.566;2024-01-11T09:25:37;9.70;76.60
37410;DHT22;23275;48.914;12.566;2024-01-11T09:28:03;10.10;76.90
37410;DHT22;23275;48.914;12.566;2024-01-11T09:30:29;9.70;76.80
37410;DHT22;23275;48.914;12.566;2024-01-11T09:32:54;9.10;76.40
37410;DHT22;23275;48.914;12.566;2024-01-11T09:35:22;9.40;78.00
37410;DHT22;23275;48.914;12.566;2024-01-11T09:37:48;9.40;76.60
37410;DHT22;23275;48.914;12.566;2024-01-11T09:40:14;8.60;77.60
37410;DHT22;23275;48.914;12.566;2024-01-11T09:42:40;9.10;77.40
37410;DHT22;23275;48.914;12.566;2024-01-11T09:45:16;8.20;78.20
37410;DHT22;23275;48.914;12.566;2024-01-11T09:47:44;8.20;81.70
37410;DHT22;23275;48.914;12.566;2024-01-11T09:50:16;8.20;79.90
37410;DHT22;23275;48.914;12.566;2024-01-11T09:52:49;7.80;80.90
37410;DHT22;23275;48.914;12.566;2024-01-11T09:55:16;8.00;81.40
37410;DHT22;23275;48.914;12.566;2024-01-11T09:57:45;8.60;82.10
37410;DHT22;23275;48.914;12.566;2024-01-11T10:00:17;9.60;80.20
37410;DHT22;23275;48.914;12.566;2024-01-11T10:02:45;10.10;78.80
37410;DHT22;23275;48.914;12.566;2024-01-11T10:05:11;11.20;74.60
37410;DHT22;23275;48.914;12.566;2024-01-11T10:07:39;11.90;73.50
37410;DHT22;23275;48.914;12.566;2024-01-11T10:10:05;11.60;72.00
37410;DHT22;23275;48.914;12.566;2024-01-11T10:12:34;11.10;73.70
37410;DHT22;23275;48.914;12.566;2024-01-11T10:15:10;10.80;73.80
37410;DHT22;23275;48.914;12.566;2024-01-11T10:17:43;11.70;73.10
37410;DHT22;23275;48.914;12.566;2024-01-11T10:20:12;12.40;72.30
37410;DHT22;23275;48.914;12.566;2024-01-11T10:22:43;13.50;69.40
37410;DHT22;23275;48.914;12.566;2024-01-11T10:25:13;13.60;66.80
37410;DHT22;23275;48.914;12.566;2024-01-11T10:27:43;13.80;67.30
37410;DHT22;23275;48.914;12.566;2024-01-11T10:30:13;14.20;66.20
37410;DHT22;23275;48.914;12.566;2024-01-11T10:32:44;14.90;64.40
37410;DHT22;23275;48.914;12.566;2024-01-11T10:35:09;15.60;62.70
37410;DHT22;23275;48.914;12.566;2024-01-11T10:37:36;15.00;62.20
37410;DHT22;23275;48.914;12.566;2024-01-11T10:40:06;14.50;62.30
37410;DHT22;23275;48.914;12.566;2024-01-11T10:42:45;14.70;61.10
37410;DHT22;23275;48.914;12.566;2024-01-11T10:45:21;14.80;60.80
37410;DHT22;23275;48.914;12.566;2024-01-11T10:48:01;14.60;59.90
37410;DHT22;23275;48.914;12.566;2024-01-11T10:50:30;13.30;63.90
37410;DHT22;23275;48.914;12.566;2024-01-11T10:55:34;13.40;62.60
37410;DHT22;23275;48.914;12.566;2024-01-11T10:58:01;11.60;64.70
37410;DHT22;23275;48.914;12.566;2024-01-11T11:00:31;9.90;67.70
37410;DHT22;23275;48.914;12.566;2024-01-11T11:02:59;8.40;72.30
37410;DHT22;23275;48.914;12.566;2024-01-11T11:05:27;7.20;76.90
37410;DHT22;23275;48.914;12.566;2024-01-11T11:07:54;6.10;80.60
37410;DHT22;23275;48.914;12.566;2024-01-11T11:10:21;5.10;84.50
37410;DHT22;23275;48.914;12.566;2024-01-11T11:12:48;4.60;87.20
37410;DHT22;23275;48.914;12.566;2024-01-11T11:15:14;4.10;87.90
37410;DHT22;23275;48.914;12.566;2024-01-11T11:17:42;3.70;90.20
37410;DHT22;23275;48.914;12.566;2024-01-11T11:20:09;3.40;91.30
37410;DHT22;23275;48.914;12.566;2024-01-11T11:22:39;3.20;92.40
37410;DHT22;23275;48.914;12.566;2024-01-11T11:25:23;3.30;93.00
37410;DHT22;23275;48.914;12.566;2024-01-11T11:27:49;3.30;93.20
37410;DHT22;23275;48.914;12.566;2024-01-11T11:30:14;3.20;93.60
37410;DHT22;23275;48.914;12.566;2024-01-11T11:32:44;3.00;93.90
37410;DHT22;23275;48.914;12.566;2024-01-11T11:35:10;2.70;94.70
37410;DHT22;23275;48.914;12.566;2024-01-11T11:37:39;2.30;96.10
37410;DHT22;23275;48.914;12.566;2024-01-11T11:40:09;2.00;97.10
37410;DHT22;23275;48.914;12.566;2024-01-11T11:42:36;2.10;97.50
37410;DHT22;23275;48.914;12.566;2024-01-11T11:45:02;2.30;97.10
37410;DHT22;23275;48.914;12.566;2024-01-11T11:47:34;2.40;97.40
37410;DHT22;23275;48.914;12.566;2024-01-11T11:50:11;2.50;97.70
37410;DHT22;23275;48.914;12.566;2024-01-11T11:52:38;2.50;97.40
37410;DHT22;23275;48.914;12.566;2024-01-11T11:55:06;2.20;98.50
37410;DHT22;23275;48.914;12.566;2024-01-11T11:57:33;1.90;98.70
37410;DHT22;23275;48.914;12.566;2024-01-11T11:59:59;1.80;99.30
37410;DHT22;23275;48.914;12.566;2024-01-11T12:02:26;1.80;99.90
37410;DHT22;23275;48.914;12.566;2024-01-11T12:04:52;1.70;99.90
37410;DHT22;23275;48.914;12.566;2024-01-11T12:07:20;1.40;99.90
37410;DHT22;23275;48.914;12.566;2024-01-11T12:09:46;1.00;99.90
37410;DHT22;23275;48.914;12.566;2024-01-11T12:12:13;0.90;99.90
37410;DHT22;23275;48.914;12.566;2024-01-11T12:14:38;0.90;99.90
37410;DHT22;23275;48.914;12.566;2024-01-11T12:17:06;0.90;99.90
37410;DHT22;23275;48.914;12.566;2024-01-11T12:19:32;1.20;99.90
37410;DHT22;23275;48.914;12.566;2024-01-11T12:21:58;1.20;99.90
37410;DHT22;23275;48.914;12.566;2024-01-11T12:24:23;1.20;99.90
37410;DHT22;23275;48.914;12.566;2024-01-11T12:26:50;1.30;99.90
37410;DHT22;23275;48.914;12.566;2024-01-11T12:29:20;1.50;99.90
37410;DHT22;23275;48.914;12.566;2024-01-11T12:31:45;1.60;99.90
37410;DHT22;23275;48.914;12.566;2024-01-11T12:34:12;1.70;99.90
37410;DHT22;23275;48.914;12.566;2024-01-11T12:36:38;1.80;99.90
37410;DHT22;23275;48.914;12.566;2024-01-11T12:39:04;1.80;99.90
37410;DHT22;23275;48.914;12.566;2024-01-11T12:41:32;1.50;99.90
37410;DHT22;23275;48.914;12.566;2024-01-11T12:43:58;1.40;99.90
37410;DHT22;23275;48.914;12.566;2024-01-11T12:46:23;1.40;99.90
37410;DHT22;23275;48.914;12.566;2024-01-11T12:48:49;1.30;99.90
37410;DHT22;23275;48.914;12.566;2024-01-11T12:51:16;1.10;99.90
37410;DHT22;23275;48.914;12.566;2024-01-11T12:53:47;1.20;99.90
37410;DHT22;23275;48.914;12.566;2024-01-11T12:56:15;1.20;99.90
37410;DHT22;23275;48.914;12.566;2024-01-11T12:58:41;1.20;99.90
37410;DHT22;23275;48.914;12.566;2024-01-11T13:01:08;1.10;99.90
37410;DHT22;23275;48.914;12.566;2024-01-11T13:03:38;1.20;99.90
37410;DHT22;23275;48.914;12.566;2024-01-11T13:06:04;1.20;99.90
37410;DHT22;23275;48.914;12.566;2024-01-11T13:08:31;1.30;99.90
37410;DHT22;23275;48.914;12.566;2024-01-11T13:10:57;1.20;99.90
37410;DHT22;23275;48.914;12.566;2024-01-11T13:13:22;1.10;99.90
37410;DHT22;23275;48.914;12.566;2024-01-11T13:15:48;1.10;99.90
37410;DHT22;23275;48.914;12.566;2024-01-11T13:18:14;1.20;99.90
37410;DHT22;23275;48.914;12.566;2024-01-11T13:20:40;1.30;99.90
37410;DHT22;23275;48.914;12.566;2024-01-11T13:23:13;1.20;99.90
37410;DHT22;23275;48.914;12.566;2024-01-11T13:25:43;1.20;99.90
37410;DHT22;23275;48.914;12.566;2024-01-11T13:28:10;0.90;99.90
37410;DHT22;23275;48.914;12.566;2024-01-11T13:30:43;0.80;99.90
37410;DHT22;23275;48.914;12.566;2024-01-11T13:33:09;0.70;99.90
37410;DHT22;23275;48.914;12.566;2024-01-11T13:35:37;0.70;99.90
37410;DHT22;23275;48.914;12.566;2024-01-11T13:38:04;0.60;99.90
37410;DHT22;23275;48.914;12.566;2024-01-11T13:40:30;0.70;99.90
37410;DHT22;23275;48.914;12.566;2024-01-11T13:42:56;0.70;99.90
37410;DHT22;23275;48.914;12.566;2024-01-11T13:45:22;0.50;99.90
37410;DHT22;23275;48.914;12.566;2024-01-11T13:47:48;0.50;99.90
37410;DHT22;23275;48.914;12.566;2024-01-11T13:50:13;0.50;99.90
37410;DHT22;23275;48.914;12.566;2024-01-11T13:52:40;0.40;99.90
37410;DHT22;23275;48.914;12.566;2024-01-11T13:55:07;0.40;99.90
37410;DHT22;23275;48.914;12.566;2024-01-11T13:57:32;0.40;99.90
37410;DHT22;23275;48.914;12.566;2024-01-11T13:59:59;0.30;99.90
37410;DHT22;23275;48.914;12.566;2024-01-11T14:02:25;0.30;99.90
37410;DHT22;23275;48.914;12.566;2024-01-11T14:04:50;0.30;99.90
37410;DHT22;23275;48.914;12.566;2024-01-11T14:07:16;0.10;99.90
37410;DHT22;23275;48.914;12.566;2024-01-11T14:09:41;0.00;99.90
37410;DHT22;23275;48.914;12.566;2024-01-11T14:12:07;0.00;99.90
37410;DHT22;23275;48.914;12.566;2024-01-11T14:14:33;0.00;99.90
37410;DHT22;23275;48.914;12.566;2024-01-11T14:16:59;0.00;99.90
37410;DHT22;23275;48.914;12.566;2024-01-11T14:19:24;0.00;99.90
37410;DHT22;23275;48.914;12.566;2024-01-11T14:21:50;-0.10;99.90
37410;DHT22;23275;48.914;12.566;2024-01-11T14:24:16;-0.10;99.90
37410;DHT22;23275;48.914;12.566;2024-01-11T14:26:41;-0.20;99.90
37410;DHT22;23275;48.914;12.566;2024-01-11T14:29:09;-0.20;99.90
37410;DHT22;23275;48.914;12.566;2024-01-11T14:31:34;-0.30;99.90
37410;DHT22;23275;48.914;12.566;2024-01-11T14:34:00;-0.30;99.90
37410;DHT22;23275;48.914;12.566;2024-01-11T14:36:25;-0.40;99.90
37410;DHT22;23275;48.914;12.566;2024-01-11T14:38:51;-0.50;99.90
37410;DHT22;23275;48.914;12.566;2024-01-11T14:41:16;-0.60;99.90
37410;DHT22;23275;48.914;12.566;2024-01-11T14:43:42;-0.70;99.90
37410;DHT22;23275;48.914;12.566;2024-01-11T14:46:08;-0.70;99.90
37410;DHT22;23275;48.914;12.566;2024-01-11T14:48:36;-0.80;99.90
37410;DHT22;23275;48.914;12.566;2024-01-11T14:51:02;-0.80;99.90
37410;DHT22;23275;48.914;12.566;2024-01-11T14:53:28;-0.90;99.90
37410;DHT22;23275;48.914;12.566;2024-01-11T14:55:53;-0.90;99.90
37410;DHT22;23275;48.914;12.566;2024-01-11T14:58:19;-0.90;99.90
37410;DHT22;23275;48.914;12.566;2024-01-11T15:00:44;-1.00;99.90
37410;DHT22;23275;48.914;12.566;2024-01-11T15:03:10;-1.00;99.90
37410;DHT22;23275;48.914;12.566;2024-01-11T15:05:36;-1.00;99.90
37410;DHT22;23275;48.914;12.566;2024-01-11T15:08:02;-1.10;99.90
37410;DHT22;23275;48.914;12.566;2024-01-11T15:10:28;-1.10;99.90
37410;DHT22;23275;48.914;12.566;2024-01-11T15:12:54;-1.10;99.90
37410;DHT22;23275;48.914;12.566;2024-01-11T15:15:19;-1.10;99.90
37410;DHT22;23275;48.914;12.566;2024-01-11T15:17:45;-1.20;99.90